TimeCDT,TemperatureF,Dew PointF,Humidity,Sea Level PressureIn,VisibilityMPH,Wind Direction,Wind SpeedMPH,Gust SpeedMPH,PrecipitationIn,Events,Conditions,WindDirDegrees,DateUTC
12:06 AM,64.4,64.4,100,29.84,0.5,Calm,Calm,-,N/A,Fog,Fog,0,2013-08-06 05:06:00
12:35 AM,66.2,64.4,94,29.86,0.2,Calm,Calm,-,N/A,Fog,Fog,0,2013-08-06 05:35:00
12:46 AM,64.4,64.4,100,29.85,0.8,NE,3.5,-,N/A,,Mist,50,2013-08-06 05:46:00
12:54 AM,64.0,64.0,100,29.85,1.5,Calm,Calm,-,N/A,,Mostly Cloudy,0,2013-08-06 05:54:00
12:59 AM,64.4,62.6,94,29.85,0.8,East,3.5,-,N/A,,Mist,80,2013-08-06 05:59:00
1:09 AM,62.6,62.6,100,29.86,1.0,Calm,Calm,-,N/A,,Mist,0,2013-08-06 06:09:00
1:16 AM,64.4,64.4,100,29.86,1.0,Calm,Calm,-,N/A,,Overcast,0,2013-08-06 06:16:00
1:30 AM,64.4,64.4,100,29.86,1.8,Calm,Calm,-,N/A,,Overcast,0,2013-08-06 06:30:00
1:37 AM,64.4,64.4,100,29.86,3.0,Calm,Calm,-,N/A,Thunderstorm,Overcast,0,2013-08-06 06:37:00
1:54 AM,64.9,64.0,97,29.85,7.0,Calm,Calm,-,N/A,,Overcast,0,2013-08-06 06:54:00
2:42 AM,64.4,64.4,100,29.84,4.0,Calm,Calm,-,N/A,,Scattered Clouds,0,2013-08-06 07:42:00
2:54 AM,64.9,64.9,100,29.83,6.0,ENE,4.6,-,N/A,,Mostly Cloudy,70,2013-08-06 07:54:00
3:14 AM,64.4,64.4,100,29.83,6.0,Calm,Calm,-,N/A,,Overcast,0,2013-08-06 08:14:00
3:28 AM,64.4,64.4,100,29.82,1.5,Calm,Calm,-,N/A,,Overcast,0,2013-08-06 08:28:00
3:40 AM,64.4,64.4,100,29.82,2.5,Calm,Calm,-,N/A,,Mostly Cloudy,0,2013-08-06 08:40:00
3:54 AM,64.0,64.0,100,29.81,2.5,Calm,Calm,-,N/A,,Mostly Cloudy,0,2013-08-06 08:54:00
4:00 AM,64.4,64.4,100,29.82,1.8,Calm,Calm,-,N/A,,Mostly Cloudy,0,2013-08-06 09:00:00
4:28 AM,64.4,64.4,100,29.82,0.8,Calm,Calm,-,N/A,,Overcast,0,2013-08-06 09:28:00
4:39 AM,64.4,64.4,100,29.81,1.2,Calm,Calm,-,N/A,,Overcast,0,2013-08-06 09:39:00
4:50 AM,64.4,64.4,100,29.82,0.8,Calm,Calm,-,N/A,,Overcast,0,2013-08-06 09:50:00
4:54 AM,64.9,64.9,100,29.80,1.5,Calm,Calm,-,N/A,,Overcast,0,2013-08-06 09:54:00
5:03 AM,64.4,64.4,100,29.81,2.5,Calm,Calm,-,N/A,,Mostly Cloudy,0,2013-08-06 10:03:00
5:07 AM,66.2,64.4,94,29.81,1.5,Calm,Calm,-,N/A,,Mostly Cloudy,0,2013-08-06 10:07:00
5:18 AM,64.4,64.4,100,29.82,1.0,Calm,Calm,-,N/A,,Mist,0,2013-08-06 10:18:00
5:38 AM,64.4,64.4,100,29.82,1.2,Calm,Calm,-,N/A,,Scattered Clouds,0,2013-08-06 10:38:00
5:54 AM,62.1,61.0,96,29.81,1.8,Calm,Calm,-,N/A,,Partly Cloudy,0,2013-08-06 10:54:00
6:02 AM,62.6,62.6,100,29.82,0.8,Calm,Calm,-,N/A,,Mist,0,2013-08-06 11:02:00
6:14 AM,62.6,62.6,100,29.82,0.2,Calm,Calm,-,N/A,Fog,Fog,0,2013-08-06 11:14:00
6:31 AM,62.6,62.6,100,29.83,0.2,Calm,Calm,-,N/A,Fog,Fog,0,2013-08-06 11:31:00
6:54 AM,62.1,62.1,100,29.82,0.2,Calm,Calm,-,N/A,Fog,Fog,0,2013-08-06 11:54:00
6:59 AM,62.6,62.6,100,29.83,1.0,Calm,Calm,-,N/A,,Mist,0,2013-08-06 11:59:00
7:03 AM,62.6,62.6,100,29.83,3.0,Calm,Calm,-,N/A,,Overcast,0,2013-08-06 12:03:00
7:14 AM,64.4,62.6,94,29.83,1.8,Calm,Calm,-,N/A,,Overcast,0,2013-08-06 12:14:00
7:23 AM,64.4,64.4,100,29.84,0.2,Calm,Calm,-,N/A,Fog,Fog,0,2013-08-06 12:23:00
7:36 AM,64.4,64.4,100,29.85,0.8,Calm,Calm,-,N/A,,Overcast,0,2013-08-06 12:36:00
7:46 AM,66.2,66.2,100,29.86,0.2,Calm,Calm,-,N/A,Fog,Fog,0,2013-08-06 12:46:00
7:54 AM,66.9,66.9,100,29.85,0.2,WNW,3.5,-,N/A,Fog,Fog,300,2013-08-06 12:54:00
8:07 AM,66.2,66.2,100,29.85,0.2,Calm,Calm,-,N/A,Fog,Fog,0,2013-08-06 13:07:00
8:54 AM,66.9,66.9,100,29.86,0.2,Calm,Calm,-,N/A,Fog,Fog,0,2013-08-06 13:54:00
9:44 AM,68.0,68.0,100,29.89,0.5,Calm,Calm,-,N/A,Fog,Fog,0,2013-08-06 14:44:00
9:54 AM,69.1,68.0,96,29.88,0.5,Calm,Calm,-,N/A,Fog,Fog,0,2013-08-06 14:54:00
10:21 AM,69.8,69.8,100,29.88,1.2,Calm,Calm,-,N/A,,Overcast,0,2013-08-06 15:21:00
10:45 AM,69.8,69.8,100,29.87,2.5,Calm,Calm,-,N/A,,Overcast,0,2013-08-06 15:45:00
10:52 AM,69.8,69.8,100,29.86,4.0,Calm,Calm,-,N/A,,Overcast,0,2013-08-06 15:52:00
10:54 AM,70.0,70.0,100,29.86,5.0,Calm,Calm,-,N/A,,Overcast,0,2013-08-06 15:54:00
11:34 AM,77.0,71.6,83,29.85,9.0,Calm,Calm,-,N/A,,Scattered Clouds,0,2013-08-06 16:34:00
11:54 AM,78.1,71.1,79,29.83,9.0,Variable,3.5,-,N/A,,Scattered Clouds,0,2013-08-06 16:54:00
12:54 PM,82.0,70.0,67,29.78,10.0,SSE,11.5,-,N/A,,Clear,160,2013-08-06 17:54:00
1:54 PM,84.0,66.9,56,29.79,10.0,SW,9.2,-,N/A,,Scattered Clouds,230,2013-08-06 18:54:00
2:54 PM,84.9,64.9,51,29.78,10.0,SSW,4.6,-,N/A,,Clear,200,2013-08-06 19:54:00
3:54 PM,86.0,66.9,53,29.79,10.0,WSW,6.9,-,N/A,,Clear,250,2013-08-06 20:54:00
4:54 PM,84.9,69.1,59,29.79,10.0,WSW,8.1,-,N/A,,Partly Cloudy,240,2013-08-06 21:54:00
5:54 PM,84.9,68.0,57,29.79,10.0,SSW,5.8,-,N/A,,Clear,210,2013-08-06 22:54:00
6:54 PM,82.9,69.1,63,29.78,10.0,SSW,4.6,-,N/A,,Clear,210,2013-08-06 23:54:00
7:54 PM,80.1,69.1,69,29.76,10.0,SSW,6.9,-,N/A,,Clear,200,2013-08-07 00:54:00
8:54 PM,75.0,69.1,82,29.78,10.0,South,6.9,-,N/A,,Clear,190,2013-08-07 01:54:00
9:54 PM,75.9,69.1,79,29.79,10.0,SSW,5.8,-,N/A,,Clear,210,2013-08-07 02:54:00
10:54 PM,77.0,68.0,74,29.78,10.0,SSW,11.5,-,N/A,,Mostly Cloudy,210,2013-08-07 03:54:00
11:54 PM,73.9,68.0,82,29.81,10.0,WSW,6.9,-,0.00,Rain,Light Rain,240,2013-08-07 04:54:00